createdAt,value
2023-03-23T00:01:23.344Z,54.20
2023-03-23T00:04:33.362Z,54.86
2023-03-23T00:07:39.578Z,54.42
2023-03-23T00:10:46.273Z,55.14
2023-03-23T00:13:55.169Z,54.78
2023-03-23T00:17:01.764Z,54.92
2023-03-23T00:20:13.134Z,54.75
2023-03-23T00:23:22.061Z,54.94
2023-03-23T00:26:29.806Z,55.75
2023-03-23T00:29:56.730Z,55.09
2023-03-23T00:33:02.586Z,55.87
2023-03-23T00:36:14.261Z,55.74
2023-03-23T00:39:20.976Z,56.11
2023-03-23T00:42:29.842Z,55.18
2023-03-23T00:45:36.137Z,56.00
2023-03-23T00:48:46.095Z,56.25
2023-03-23T00:51:55.895Z,56.22
2023-03-23T00:55:03.414Z,55.80
2023-03-23T00:58:09.049Z,56.76
2023-03-23T01:01:17.180Z,56.28
2023-03-23T01:04:23.410Z,56.63
2023-03-23T01:07:32.997Z,56.12
2023-03-23T01:10:40.868Z,55.72
2023-03-23T01:13:48.393Z,56.52
2023-03-23T01:16:53.998Z,56.47
2023-03-23T01:20:00.743Z,56.25
2023-03-23T01:23:09.956Z,55.91
2023-03-23T01:26:21.231Z,56.34
2023-03-23T01:29:27.084Z,55.90
2023-03-23T01:32:33.789Z,56.04
2023-03-23T01:35:42.910Z,56.02
2023-03-23T01:38:55.276Z,55.99
2023-03-23T01:42:01.072Z,55.72
2023-03-23T01:45:33.684Z,55.63
2023-03-23T01:48:43.223Z,55.20
2023-03-23T01:51:57.442Z,55.67
2023-03-23T01:55:08.660Z,55.49
2023-03-23T01:58:17.170Z,55.29
2023-03-23T02:01:26.173Z,55.56
2023-03-23T02:04:37.774Z,55.56
2023-03-23T02:07:44.525Z,55.51
2023-03-23T02:10:54.063Z,55.80
2023-03-23T02:14:00.418Z,55.96
2023-03-23T02:17:15.208Z,55.49
2023-03-23T02:21:01.011Z,56.19
2023-03-23T02:25:01.441Z,55.87
2023-03-23T02:28:56.285Z,55.42
2023-03-23T02:32:20.756Z,55.41
2023-03-23T02:35:40.234Z,55.66
2023-03-23T02:39:01.652Z,55.63
2023-03-23T02:42:13.521Z,56.21
2023-03-23T02:45:27.464Z,55.01
2023-03-23T02:48:35.884Z,55.43
2023-03-23T02:51:52.402Z,56.08
2023-03-23T02:55:03.025Z,55.39
2023-03-23T02:58:10.438Z,56.29
2023-03-23T03:02:02.018Z,55.44
2023-03-23T03:05:26.722Z,55.47
2023-03-23T03:08:50.595Z,56.13
2023-03-23T03:12:12.479Z,55.30
2023-03-23T03:15:33.044Z,55.95
2023-03-23T03:18:52.461Z,55.50
2023-03-23T03:22:03.934Z,56.07
2023-03-23T03:25:21.759Z,56.54
2023-03-23T03:28:30.051Z,56.21
2023-03-23T03:31:46.516Z,55.90
2023-03-23T03:34:53.665Z,55.47
2023-03-23T03:38:01.834Z,56.03
2023-03-23T03:41:10.554Z,55.61
2023-03-23T03:44:17.997Z,55.77
2023-03-23T03:47:23.783Z,55.67
2023-03-23T03:50:30.767Z,55.30
2023-03-23T03:53:37.366Z,55.58
2023-03-23T03:56:48.016Z,55.20
2023-03-23T04:00:41.437Z,55.35
2023-03-23T04:03:49.216Z,54.87
2023-03-23T04:07:06.496Z,54.66
2023-03-23T04:10:16.050Z,54.97
2023-03-23T04:13:42.475Z,55.14
2023-03-23T04:17:00.289Z,54.20
2023-03-23T04:20:08.714Z,55.30
2023-03-23T04:23:15.518Z,54.16
2023-03-23T04:26:23.559Z,54.77
2023-03-23T04:29:35.300Z,54.36
2023-03-23T04:32:45.021Z,54.85
2023-03-23T04:35:56.623Z,53.83
2023-03-23T04:39:12.709Z,54.60
2023-03-23T04:42:19.811Z,53.93
2023-03-23T04:45:47.266Z,54.47
2023-03-23T04:48:56.307Z,54.74
2023-03-23T04:52:07.254Z,54.07
2023-03-23T04:55:23.899Z,54.63
2023-03-23T04:58:36.227Z,54.82
2023-03-23T05:02:14.612Z,54.59
2023-03-23T05:05:26.217Z,54.10
2023-03-23T05:08:35.479Z,53.81
2023-03-23T05:11:41.355Z,54.50
2023-03-23T05:14:48.369Z,54.74
2023-03-23T05:18:00.519Z,54.17
2023-03-23T05:21:08.436Z,54.29
2023-03-23T05:24:19.052Z,53.31
2023-03-23T05:27:31.554Z,54.38
2023-03-23T05:30:45.513Z,54.25
2023-03-23T05:33:56.899Z,53.95
2023-03-23T05:37:11.007Z,53.54
2023-03-23T05:40:31.463Z,52.38
2023-03-23T05:43:47.454Z,53.41
2023-03-23T05:46:54.393Z,52.45
2023-03-23T05:50:03.821Z,52.69
2023-03-23T05:53:12.627Z,52.30
2023-03-23T05:56:19.670Z,52.37
2023-03-23T05:59:44.463Z,51.47
2023-03-23T06:03:00.585Z,52.32
2023-03-23T06:06:17.809Z,51.68
2023-03-23T06:09:42.404Z,51.55
2023-03-23T06:13:05.265Z,51.71
2023-03-23T06:16:17.595Z,51.28
2023-03-23T06:19:33.507Z,51.46
2023-03-23T06:22:49.317Z,50.72
2023-03-23T06:26:10.122Z,50.55
2023-03-23T06:29:18.455Z,50.63
2023-03-23T06:32:33.561Z,50.02
2023-03-23T06:35:41.063Z,50.32
2023-03-23T06:39:05.513Z,50.22
2023-03-23T06:42:28.326Z,49.81
2023-03-23T06:45:55.591Z,49.47
2023-03-23T06:49:16.515Z,49.38
2023-03-23T06:52:31.141Z,48.88
2023-03-23T06:55:40.542Z,48.84
2023-03-23T06:58:48.136Z,49.04
2023-03-23T07:01:54.137Z,49.05
2023-03-23T07:05:01.716Z,48.92
2023-03-23T07:08:09.006Z,48.04
2023-03-23T07:11:33.876Z,48.16
2023-03-23T07:14:45.465Z,47.97
2023-03-23T07:17:53.021Z,48.03
2023-03-23T07:21:11.820Z,47.49
2023-03-23T07:24:20.786Z,48.19
2023-03-23T07:27:43.093Z,47.63
2023-03-23T07:30:50.438Z,47.62
2023-03-23T07:33:56.869Z,47.39
2023-03-23T07:37:09.411Z,47.46
2023-03-23T07:40:19.355Z,47.20
2023-03-23T07:43:34.494Z,47.39
2023-03-23T07:46:58.972Z,47.60
2023-03-23T07:50:13.819Z,46.69
2023-03-23T07:53:22.713Z,47.04
2023-03-23T07:56:36.667Z,47.14
2023-03-23T07:59:54.143Z,46.70
2023-03-23T08:03:03.988Z,46.79
2023-03-23T08:06:16.712Z,46.20
2023-03-23T08:10:14.798Z,46.92
2023-03-23T08:13:40.667Z,47.02
2023-03-23T08:16:56.575Z,46.46
2023-03-23T08:20:18.405Z,46.52
2023-03-23T08:24:09.509Z,47.14
2023-03-23T08:27:32.055Z,46.71
2023-03-23T08:31:28.675Z,46.58
2023-03-23T08:34:54.417Z,45.83
2023-03-23T08:38:57.004Z,46.13
2023-03-23T08:42:30.572Z,45.56
2023-03-23T08:45:40.760Z,45.32
2023-03-23T08:49:19.145Z,45.47
2023-03-23T08:53:22.120Z,44.90
2023-03-23T08:56:28.678Z,44.50
2023-03-23T08:59:44.076Z,44.60
2023-03-23T09:03:11.555Z,44.00
2023-03-23T09:06:40.822Z,43.43
2023-03-23T09:09:49.890Z,44.17
2023-03-23T09:12:58.610Z,43.45
2023-03-23T09:16:05.360Z,42.77
2023-03-23T09:19:14.136Z,42.08
2023-03-23T09:22:24.540Z,41.81
2023-03-23T09:25:35.131Z,42.56
2023-03-23T09:28:41.109Z,42.10
2023-03-23T09:31:47.977Z,41.55
2023-03-23T09:34:56.533Z,42.26
2023-03-23T09:38:04.392Z,41.47
2023-03-23T09:41:38.366Z,40.97
2023-03-23T09:45:07.276Z,41.43
2023-03-23T09:48:42.497Z,41.68
2023-03-23T09:51:56.859Z,41.59
2023-03-23T09:55:04.061Z,41.04
2023-03-23T09:58:29.194Z,40.94
2023-03-23T10:01:44.021Z,40.88
2023-03-23T10:04:54.436Z,43.17
2023-03-23T10:08:01.311Z,40.70
2023-03-23T10:11:16.737Z,40.89
2023-03-23T10:14:42.017Z,39.50
2023-03-23T10:17:58.576Z,39.82
2023-03-23T10:21:06.307Z,38.96
2023-03-23T10:24:19.696Z,38.34
2023-03-23T10:27:37.853Z,38.95
2023-03-23T10:30:55.876Z,38.59
2023-03-23T10:34:13.216Z,37.83
2023-03-23T10:37:29.165Z,37.19
2023-03-23T10:40:36.792Z,35.64
2023-03-23T10:43:44.463Z,36.17
2023-03-23T10:47:04.177Z,36.29
2023-03-23T10:50:21.430Z,36.61
2023-03-23T10:53:36.736Z,36.71
2023-03-23T10:56:58.825Z,37.05
2023-03-23T11:00:11.692Z,37.96
2023-03-23T11:03:43.782Z,38.01
2023-03-23T11:06:55.422Z,38.17
2023-03-23T11:10:20.610Z,37.90
2023-03-23T11:13:34.047Z,37.96
2023-03-23T11:16:49.664Z,38.03
2023-03-23T11:19:58.800Z,38.25
2023-03-23T11:23:06.478Z,38.61
2023-03-23T11:26:19.892Z,38.72
2023-03-23T11:29:30.637Z,38.66
2023-03-23T11:32:37.401Z,38.43
2023-03-23T11:35:50.584Z,38.11
2023-03-23T11:39:06.376Z,38.68
2023-03-23T11:42:23.933Z,39.15
2023-03-23T11:45:38.978Z,38.61
2023-03-23T11:48:59.998Z,38.79
2023-03-23T11:52:26.954Z,38.65
2023-03-23T11:56:00.299Z,38.14
2023-03-23T11:59:07.964Z,38.13
2023-03-23T12:02:46.641Z,38.12
2023-03-23T12:06:17.520Z,38.41
2023-03-23T12:09:48.212Z,37.79
2023-03-23T12:13:20.750Z,38.34
2023-03-23T12:16:46.610Z,37.89
2023-03-23T12:20:16.049Z,38.95
2023-03-23T12:23:33.647Z,37.29
2023-03-23T12:26:55.438Z,37.85
2023-03-23T12:30:23.930Z,37.68
2023-03-23T12:33:50.037Z,36.75
2023-03-23T12:37:23.875Z,38.08
2023-03-23T12:40:53.830Z,36.28
2023-03-23T12:44:14.465Z,37.59
2023-03-23T12:47:40.948Z,36.78
2023-03-23T12:51:12.396Z,37.32
2023-03-23T12:54:30.844Z,37.81
2023-03-23T12:57:45.998Z,37.59
2023-03-23T13:01:05.702Z,38.00
2023-03-23T13:04:20.190Z,38.38
2023-03-23T13:07:34.972Z,37.87
2023-03-23T13:10:49.747Z,38.15
2023-03-23T13:14:03.622Z,37.99
2023-03-23T13:17:29.106Z,38.66
2023-03-23T13:21:04.567Z,38.08
2023-03-23T13:24:25.445Z,38.39
2023-03-23T13:27:33.817Z,38.17
2023-03-23T13:30:40.468Z,38.10
2023-03-23T13:34:02.095Z,38.26
2023-03-23T13:37:16.624Z,38.04
2023-03-23T13:40:33.032Z,38.44
2023-03-23T13:43:42.905Z,38.24
2023-03-23T13:47:00.832Z,37.43
2023-03-23T13:50:30.910Z,37.00
2023-03-23T13:53:50.596Z,37.56
2023-03-23T13:57:02.311Z,37.27
2023-03-23T14:00:39.885Z,36.92
2023-03-23T14:03:54.441Z,37.33
2023-03-23T14:07:16.200Z,37.19
2023-03-23T14:10:23.134Z,36.59
2023-03-23T14:13:37.977Z,36.92
2023-03-23T14:16:47.756Z,36.11
2023-03-23T14:19:57.379Z,36.57
2023-03-23T14:23:24.081Z,37.16
2023-03-23T14:26:29.861Z,36.76
2023-03-23T14:29:36.750Z,37.30
2023-03-23T14:32:42.861Z,36.66
2023-03-23T14:35:50.636Z,37.27
2023-03-23T14:39:22.684Z,37.38
2023-03-23T14:42:35.777Z,37.16
2023-03-23T14:45:43.604Z,37.02
2023-03-23T14:48:50.568Z,37.21
2023-03-23T14:51:58.979Z,36.87
2023-03-23T14:55:18.803Z,36.86
2023-03-23T14:58:27.699Z,37.35
2023-03-23T15:01:39.808Z,37.30
2023-03-23T15:04:51.878Z,37.23
2023-03-23T15:08:07.731Z,37.25
2023-03-23T15:11:32.888Z,37.40
2023-03-23T15:14:51.747Z,37.09
2023-03-23T15:17:59.020Z,37.40
2023-03-23T15:21:22.982Z,36.90
2023-03-23T15:24:40.906Z,37.09
2023-03-23T15:27:57.372Z,37.38
2023-03-23T15:31:10.580Z,37.62
2023-03-23T15:34:30.007Z,37.48
2023-03-23T15:37:47.041Z,37.88
2023-03-23T15:40:57.178Z,37.63
2023-03-23T15:44:16.745Z,37.56
2023-03-23T15:47:25.466Z,37.43
2023-03-23T15:50:39.737Z,37.60
2023-03-23T15:53:47.166Z,37.16
2023-03-23T15:56:53.184Z,37.73
2023-03-23T16:00:02.917Z,37.44
2023-03-23T16:03:28.018Z,37.46
2023-03-23T16:06:39.011Z,37.71
2023-03-23T16:09:46.440Z,37.79
2023-03-23T16:12:53.943Z,37.66
2023-03-23T16:16:03.306Z,38.43
2023-03-23T16:19:10.489Z,38.66
2023-03-23T16:22:17.258Z,38.72
2023-03-23T16:25:25.399Z,38.78
2023-03-23T16:28:31.177Z,39.30
2023-03-23T16:31:40.729Z,39.41
2023-03-23T16:34:46.661Z,39.73
2023-03-23T16:38:07.008Z,39.99
2023-03-23T16:41:14.269Z,40.43
2023-03-23T16:44:21.179Z,40.23
2023-03-23T16:47:29.729Z,40.72
2023-03-23T16:50:37.492Z,40.15
2023-03-23T16:53:43.320Z,40.56
2023-03-23T16:56:49.868Z,40.27
2023-03-23T16:59:58.800Z,40.45
2023-03-23T17:03:08.534Z,40.56
2023-03-23T17:06:14.647Z,40.34
2023-03-23T17:09:21.825Z,40.75
2023-03-23T17:12:30.610Z,40.42
2023-03-23T17:15:41.016Z,41.07
2023-03-23T17:18:49.639Z,40.75
2023-03-23T17:21:56.199Z,41.21
2023-03-23T17:25:02.527Z,40.87
2023-03-23T17:28:09.538Z,40.88
2023-03-23T17:31:15.380Z,40.76
2023-03-23T17:34:25.155Z,41.28
2023-03-23T17:37:30.884Z,41.24
2023-03-23T17:40:37.549Z,41.66
2023-03-23T17:43:44.048Z,41.96
2023-03-23T17:46:50.585Z,42.25
2023-03-23T17:49:59.189Z,42.02
2023-03-23T17:53:05.857Z,41.97
2023-03-23T17:56:13.315Z,42.26
2023-03-23T17:59:19.989Z,42.06
2023-03-23T18:02:25.913Z,42.27
2023-03-23T18:05:35.298Z,42.35
2023-03-23T18:08:42.211Z,42.37
2023-03-23T18:11:49.511Z,42.30
2023-03-23T18:14:59.874Z,41.70
2023-03-23T18:18:08.807Z,42.10
2023-03-23T18:21:17.714Z,42.00
2023-03-23T18:24:24.614Z,41.90
2023-03-23T18:27:30.870Z,41.87
2023-03-23T18:30:38.814Z,42.34
2023-03-23T18:33:47.089Z,42.21
2023-03-23T18:36:56.780Z,42.14
2023-03-23T18:40:02.677Z,42.19
2023-03-23T18:43:10.058Z,42.33
2023-03-23T18:46:16.756Z,42.52
2023-03-23T18:49:24.075Z,42.58
2023-03-23T18:52:34.342Z,42.27
2023-03-23T18:55:41.502Z,42.32
2023-03-23T18:58:49.061Z,42.73
2023-03-23T19:01:55.907Z,42.31
2023-03-23T19:05:02.125Z,42.50
2023-03-23T19:08:13.816Z,42.57
2023-03-23T19:11:21.399Z,42.46
2023-03-23T19:14:28.412Z,42.58
2023-03-23T19:17:34.369Z,41.69
2023-03-23T19:21:09.437Z,42.08
2023-03-23T19:24:12.146Z,41.53
2023-03-23T19:27:21.050Z,42.02
2023-03-23T19:30:27.380Z,41.63
2023-03-23T19:33:34.131Z,42.00
2023-03-23T19:36:40.904Z,42.04
2023-03-23T19:39:50.551Z,41.59
2023-03-23T19:42:57.489Z,42.24
2023-03-23T19:46:04.599Z,41.68
2023-03-23T19:49:10.973Z,41.62
2023-03-23T19:52:18.872Z,42.49
2023-03-23T19:55:28.414Z,42.31
2023-03-23T19:58:35.466Z,42.33
2023-03-23T20:01:41.629Z,42.52
2023-03-23T20:04:49.795Z,42.11
2023-03-23T20:07:57.391Z,42.58
2023-03-23T20:11:13.547Z,42.77
2023-03-23T20:14:20.863Z,42.75
2023-03-23T20:17:28.678Z,42.88
2023-03-23T20:20:36.800Z,42.93
2023-03-23T20:23:46.884Z,42.23
2023-03-23T20:26:56.228Z,42.75
2023-03-23T20:30:04.388Z,42.83
2023-03-23T20:33:10.952Z,43.24
2023-03-23T20:36:20.201Z,42.67
2023-03-23T20:39:26.486Z,43.51
2023-03-23T20:42:36.262Z,43.50
2023-03-23T20:45:42.910Z,42.90
2023-03-23T20:48:50.866Z,43.05
2023-03-23T20:51:57.069Z,43.70
2023-03-23T20:55:04.265Z,43.74
2023-03-23T20:58:13.336Z,43.71
2023-03-23T21:01:21.874Z,43.22
2023-03-23T21:04:30.534Z,43.02
2023-03-23T21:07:37.378Z,43.25
2023-03-23T21:10:44.138Z,43.48
2023-03-23T21:13:54.085Z,43.38
2023-03-23T21:17:02.589Z,43.72
2023-03-23T21:20:11.818Z,43.50
2023-03-23T21:23:17.933Z,43.52
2023-03-23T21:26:30.716Z,43.97
2023-03-23T21:29:39.391Z,43.91
2023-03-23T21:32:46.226Z,44.38
2023-03-23T21:35:52.569Z,44.18
2023-03-23T21:39:02.447Z,44.83
2023-03-23T21:42:08.343Z,45.00
2023-03-23T21:45:21.501Z,44.44
2023-03-23T21:48:29.687Z,45.18
2023-03-23T21:51:36.403Z,44.77
2023-03-23T21:54:42.396Z,45.38
2023-03-23T21:57:49.268Z,44.90
2023-03-23T22:01:02.605Z,45.17
2023-03-23T22:04:10.494Z,44.89
2023-03-23T22:07:16.892Z,44.90
2023-03-23T22:10:24.349Z,44.79
2023-03-23T22:13:31.492Z,44.82
2023-03-23T22:16:41.359Z,45.45
2023-03-23T22:19:47.447Z,45.34
2023-03-23T22:22:54.492Z,45.53
2023-03-23T22:26:00.938Z,45.22
2023-03-23T22:29:11.538Z,45.33
2023-03-23T22:32:20.302Z,45.29
2023-03-23T22:35:27.524Z,45.06
2023-03-23T22:38:33.469Z,45.41
2023-03-23T22:41:44.093Z,44.89
2023-03-23T22:44:50.553Z,45.43
2023-03-23T22:48:00.933Z,45.47
2023-03-23T22:51:07.297Z,44.85
2023-03-23T22:54:14.970Z,45.18
2023-03-23T22:57:21.172Z,44.89
2023-03-23T23:00:28.730Z,45.17
2023-03-23T23:03:39.041Z,45.21
2023-03-23T23:06:45.907Z,45.57
2023-03-23T23:09:52.380Z,45.54
2023-03-23T23:12:59.315Z,45.77
2023-03-23T23:16:07.561Z,45.85
2023-03-23T23:19:18.127Z,45.59
2023-03-23T23:22:24.095Z,46.24
2023-03-23T23:25:31.940Z,46.07
2023-03-23T23:28:40.482Z,46.17
2023-03-23T23:31:47.680Z,46.26
2023-03-23T23:34:56.579Z,46.33
2023-03-23T23:38:03.949Z,45.85
2023-03-23T23:41:10.801Z,45.89
2023-03-23T23:44:18.050Z,46.16
2023-03-23T23:47:24.141Z,46.08
2023-03-23T23:50:33.744Z,45.43
2023-03-23T23:53:39.591Z,45.69
2023-03-23T23:56:46.427Z,45.39
2023-03-23T23:59:52.436Z,45.79
